Time;durP1;ratioP1;P1;durP2;ratioP2;P2;SDS_P1;SDS_P2;PMS_P1;PMS_P2;Temp;Humidity;BMP_temperature;BMP_pressure;BME280_temperature;BME280_humidity;BME280_pressure;Samples;Min_cycle;Max_cycle;Signal;HPM_P1;HPM_P2
2022/05/25 00:01:42;;;;;;;2.77;1.20;;;;;;;13.13;74.33;100200.88;5055002;28;20205;-76
2022/05/25 00:04:09;;;;;;;2.10;1.13;;;;;;;13.15;74.69;100199.06;5054635;28;20256;-76
2022/05/25 00:06:36;;;;;;;2.43;1.20;;;;;;;13.17;73.90;100200.72;5054180;28;20624;-76
2022/05/25 00:09:03;;;;;;;1.53;1.43;;;;;;;13.20;74.40;100239.06;5054517;28;20252;-76
2022/05/25 00:11:29;;;;;;;1.60;1.50;;;;;;;13.22;74.05;100230.25;5054607;28;20835;-76
2022/05/25 00:13:57;;;;;;;3.03;1.13;;;;;;;13.23;73.92;100241.59;5054384;28;20706;-76
2022/05/25 00:16:24;;;;;;;1.33;1.03;;;;;;;13.15;73.94;100236.59;5054526;28;20209;-76
2022/05/25 00:21:34;;;;;;;2.20;1.00;;;;;;;13.20;73.93;100236.44;5054537;28;20778;-76
2022/05/25 00:24:01;;;;;;;1.73;1.10;;;;;;;13.22;75.33;100213.66;5054272;28;20610;-76
2022/05/25 00:26:27;;;;;;;1.00;0.90;;;;;;;13.21;75.19;100217.19;5054278;28;20699;-76
2022/05/25 00:28:54;;;;;;;1.43;1.10;;;;;;;13.19;73.69;100242.59;5054242;28;20209;-76
2022/05/25 00:31:22;;;;;;;1.17;1.13;;;;;;;13.24;73.98;100253.78;5054242;28;20603;-76
2022/05/25 00:33:48;;;;;;;1.87;1.20;;;;;;;13.15;73.06;100280.31;5053908;28;20315;-76
2022/05/25 00:36:15;;;;;;;1.20;1.10;;;;;;;13.19;73.06;100276.69;5053796;28;20217;-76
2022/05/25 00:38:41;;;;;;;2.03;1.00;;;;;;;13.28;73.34;100268.53;5053984;28;20202;-76
2022/05/25 00:41:07;;;;;;;2.27;1.00;;;;;;;13.34;73.42;100262.22;5053776;28;20221;-76
2022/05/25 00:43:34;;;;;;;1.60;1.50;;;;;;;13.34;73.66;100277.97;5054150;28;20225;-76
2022/05/25 00:46:05;;;;;;;3.27;1.60;;;;;;;13.31;73.78;100274.53;5054300;28;20573;-76
2022/05/25 00:48:36;;;;;;;1.73;1.00;;;;;;;13.30;72.41;100292.97;5053844;28;20209;-76
2022/05/25 00:51:15;;;;;;;4.50;1.27;;;;;;;13.31;74.37;100277.16;5053948;28;20209;-76
2022/05/25 00:53:44;;;;;;;1.43;1.33;;;;;;;13.28;72.50;100292.13;5053424;28;20276;-76
2022/05/25 00:56:15;;;;;;;1.30;1.17;;;;;;;13.33;73.21;100294.63;5053876;28;20205;-77
2022/05/25 00:58:46;;;;;;;1.97;1.00;;;;;;;13.34;72.74;100288.44;5053773;28;20201;-76
2022/05/25 01:01:12;;;;;;;1.87;1.20;;;;;;;13.30;72.96;100298.19;5054127;28;20300;-76
2022/05/25 01:03:40;;;;;;;1.20;1.03;;;;;;;13.35;72.77;100288.41;5053352;28;20218;-76
2022/05/25 01:06:14;;;;;;;1.23;1.00;;;;;;;13.38;73.22;100285.69;5053645;28;20267;-77
2022/05/25 01:08:53;;;;;;;1.50;1.40;;;;;;;13.22;72.31;100310.63;5053296;28;20251;-76
2022/05/25 01:11:34;;;;;;;2.00;1.20;;;;;;;13.23;73.07;100304.50;5053826;28;20262;-77
2022/05/25 01:14:13;;;;;;;1.40;1.30;;;;;;;13.27;72.75;100306.97;5053342;28;20710;-76
2022/05/25 01:16:46;;;;;;;1.63;1.13;;;;;;;13.28;72.21;100313.09;5053723;28;20190;-76
2022/05/25 01:19:30;;;;;;;2.57;1.20;;;;;;;13.20;72.77;100310.72;5053071;28;20210;-77
2022/05/25 01:22:02;;;;;;;1.77;1.30;;;;;;;13.16;72.43;100322.19;5053465;28;20243;-76
2022/05/25 01:24:37;;;;;;;1.33;1.23;;;;;;;13.19;72.49;100314.22;5053198;28;20777;-76
2022/05/25 01:27:28;;;;;;;1.90;1.50;;;;;;;13.21;72.37;100308.94;5053118;28;20593;-76
2022/05/25 01:30:15;;;;;;;1.27;1.17;;;;;;;13.17;73.05;100312.56;5052846;28;20705;-76
2022/05/25 01:32:50;;;;;;;1.30;1.20;;;;;;;13.18;72.62;100304.66;5052865;28;20989;-76
2022/05/25 01:35:23;;;;;;;1.40;1.30;;;;;;;13.21;72.46;100319.41;5053258;28;20203;-76
2022/05/25 01:37:56;;;;;;;1.00;1.00;;;;;;;13.25;72.55;100319.25;5045129;28;20239;-76
2022/05/25 01:40:26;;;;;;;1.97;1.20;;;;;;;13.21;72.62;100330.75;5052925;28;20331;-76
2022/05/25 01:42:56;;;;;;;2.27;1.43;;;;;;;13.19;72.46;100329.09;5052834;28;20241;-76
2022/05/25 01:45:29;;;;;;;2.77;1.40;;;;;;;13.14;72.89;100318.78;5052611;28;20675;-76
2022/05/25 01:48:00;;;;;;;3.13;1.43;;;;;;;13.03;73.26;100308.59;5052482;28;20721;-77
2022/05/25 01:50:33;;;;;;;1.20;1.20;;;;;;;13.05;73.06;100304.16;5052711;28;20279;-77
2022/05/25 01:53:02;;;;;;;1.57;1.43;;;;;;;13.05;73.21;100296.31;5052739;28;20264;-76
2022/05/25 01:55:33;;;;;;;1.83;1.53;;;;;;;13.01;73.40;100299.09;5052439;28;20251;-76
2022/05/25 01:58:03;;;;;;;1.70;1.37;;;;;;;13.00;72.95;100313.06;5052633;28;20197;-76
2022/05/25 02:00:35;;;;;;;2.70;1.73;;;;;;;12.95;73.27;100310.59;5052560;28;20555;-76
2022/05/25 02:06:01;;;;;;;2.60;1.67;;;;;;;12.88;73.88;100311.69;5052419;28;20252;-76
2022/05/25 02:08:39;;;;;;;2.07;1.57;;;;;;;12.81;74.26;100297.09;5052395;28;20640;-76
2022/05/25 02:11:16;;;;;;;1.60;1.50;;;;;;;12.77;74.55;100285.84;5052534;28;20190;-76
2022/05/25 02:13:54;;;;;;;1.40;1.40;;;;;;;12.73;74.84;100289.47;5052396;28;20236;-76
2022/05/25 02:16:31;;;;;;;1.73;1.63;;;;;;;12.67;75.37;100281.78;5052297;28;20785;-76
2022/05/25 02:19:05;;;;;;;2.20;1.60;;;;;;;12.66;75.54;100286.16;5051927;28;20209;-76
2022/05/25 02:21:39;;;;;;;1.80;1.70;;;;;;;12.64;75.35;100281.88;5052426;28;20192;-76
2022/05/25 02:24:12;;;;;;;3.50;1.77;;;;;;;12.61;75.69;100268.88;5051243;28;20279;-76
2022/05/25 02:26:45;;;;;;;3.60;1.90;;;;;;;12.55;76.51;100264.69;5052259;28;20201;-76
2022/05/25 02:29:17;;;;;;;3.77;1.70;;;;;;;12.42;77.39;100245.00;5051820;28;20274;-76
2022/05/25 02:31:51;;;;;;;1.87;1.77;;;;;;;12.43;77.16;100231.88;5052254;28;20654;-76
2022/05/25 02:34:20;;;;;;;2.27;1.60;;;;;;;12.50;78.21;100228.13;5051458;28;20237;-76
2022/05/25 02:36:48;;;;;;;5.33;1.60;;;;;;;12.57;78.23;100196.56;5052022;28;20263;-77
2022/05/25 02:39:15;;;;;;;1.50;1.40;;;;;;;12.48;77.07;100243.03;5051693;28;20202;-77
2022/05/25 02:41:48;;;;;;;4.30;1.80;;;;;;;12.47;77.34;100220.41;5051802;28;20577;-76
2022/05/25 02:44:15;;;;;;;2.33;1.90;;;;;;;12.38;77.50;100220.66;5051835;28;20235;-76
2022/05/25 02:46:41;;;;;;;2.80;1.87;;;;;;;12.35;77.12;100227.75;5051837;28;20224;-76
2022/05/25 02:49:09;;;;;;;1.70;1.60;;;;;;;12.29;78.78;100192.16;5051480;28;20303;-76
2022/05/25 02:51:36;;;;;;;1.50;1.40;;;;;;;12.26;78.09;100213.19;5051797;28;20212;-76
2022/05/25 02:54:03;;;;;;;1.83;1.60;;;;;;;12.21;77.86;100204.59;5050927;28;20237;-76
2022/05/25 02:56:30;;;;;;;3.37;1.80;;;;;;;12.18;78.61;100207.31;5051870;28;20250;-76
2022/05/25 02:58:56;;;;;;;1.80;1.50;;;;;;;12.09;78.56;100211.03;5051354;28;20312;-77
2022/05/25 03:01:23;;;;;;;1.93;1.47;;;;;;;12.07;77.98;100229.44;5051613;28;20631;-76
2022/05/25 03:03:49;;;;;;;2.07;1.97;;;;;;;12.04;77.69;100233.88;5051586;28;20593;-76
2022/05/25 03:06:18;;;;;;;1.90;1.47;;;;;;;11.97;78.35;100235.81;5051564;28;20621;-76
2022/05/25 03:08:44;;;;;;;1.57;1.47;;;;;;;11.95;78.29;100234.97;5051767;28;20242;-76
2022/05/25 03:11:11;;;;;;;1.63;1.50;;;;;;;11.88;78.25;100223.81;5051645;28;20259;-76
2022/05/25 03:13:38;;;;;;;1.40;1.30;;;;;;;11.85;78.45;100223.03;5051631;28;20240;-76
2022/05/25 03:16:07;;;;;;;2.97;1.50;;;;;;;11.82;78.51;100231.81;5054574;28;20219;-76
2022/05/25 03:18:34;;;;;;;2.50;1.20;;;;;;;11.76;78.97;100212.84;5055160;28;20299;-76
2022/05/25 03:21:00;;;;;;;1.60;1.50;;;;;;;11.79;78.67;100217.97;5055338;28;20645;-76
2022/05/25 03:23:28;;;;;;;1.67;1.57;;;;;;;11.77;78.98;100231.09;5055449;28;20239;-76
2022/05/25 03:25:55;;;;;;;2.20;1.50;;;;;;;11.73;78.98;100239.91;5055339;28;20209;-76
2022/05/25 03:28:21;;;;;;;1.87;1.37;;;;;;;11.73;79.48;100211.16;5055612;28;20255;-76
2022/05/25 03:30:48;;;;;;;1.60;1.50;;;;;;;11.72;78.81;100238.22;5055149;28;20258;-76
2022/05/25 03:33:15;;;;;;;1.80;1.57;;;;;;;11.67;79.09;100230.50;5054826;28;20231;-76
2022/05/25 03:35:43;;;;;;;1.80;1.40;;;;;;;11.60;79.37;100226.31;5055400;28;20235;-76
2022/05/25 03:38:09;;;;;;;3.43;1.80;;;;;;;11.56;79.91;100219.47;5055488;28;20206;-76
2022/05/25 03:40:38;;;;;;;1.40;1.33;;;;;;;11.62;79.49;100223.69;5055098;28;20199;-76
2022/05/25 03:43:05;;;;;;;1.90;1.40;;;;;;;11.54;79.94;100218.66;5055238;28;20256;-76
2022/05/25 03:45:32;;;;;;;2.27;1.57;;;;;;;11.58;79.73;100220.28;5055078;28;20204;-76
2022/05/25 03:47:58;;;;;;;1.93;1.50;;;;;;;11.62;79.47;100227.13;5054911;28;20572;-76
2022/05/25 03:50:25;;;;;;;2.93;1.43;;;;;;;11.61;80.01;100227.19;5054705;28;20212;-76
2022/05/25 03:52:51;;;;;;;1.67;1.57;;;;;;;11.57;80.59;100210.72;5054972;28;20255;-76
2022/05/25 03:55:18;;;;;;;2.37;1.43;;;;;;;11.54;80.86;100197.75;5054258;28;20635;-76
2022/05/25 03:57:46;;;;;;;1.93;1.70;;;;;;;11.58;80.40;100207.22;5055009;28;20211;-76
2022/05/25 04:00:13;;;;;;;2.90;1.60;;;;;;;11.61;80.39;100208.88;5054815;28;20213;-76
2022/05/25 04:02:39;;;;;;;1.47;1.37;;;;;;;11.56;80.58;100218.63;5054825;28;20292;-76
2022/05/25 04:05:10;;;;;;;1.20;1.17;;;;;;;11.61;80.52;100219.34;5054873;28;20208;-76
2022/05/25 04:07:40;;;;;;;2.73;1.40;;;;;;;11.57;80.91;100210.72;5054836;28;20761;-76
2022/05/25 04:10:11;;;;;;;1.53;1.10;;;;;;;11.58;81.21;100206.38;5054222;28;20562;-75
2022/05/25 04:12:37;;;;;;;2.83;1.50;;;;;;;11.54;81.90;100187.28;5054792;28;20228;-76
2022/05/25 04:15:06;;;;;;;1.43;1.33;;;;;;;11.61;81.29;100183.59;5054787;28;20229;-77
2022/05/25 04:17:33;;;;;;;1.73;1.30;;;;;;;11.64;81.74;100178.28;5054589;28;20201;-77
2022/05/25 04:20:00;;;;;;;1.83;1.20;;;;;;;11.61;81.81;100180.13;5054268;28;20297;-77
2022/05/25 04:22:26;;;;;;;1.10;1.00;;;;;;;11.70;82.48;100167.66;5054138;28;20699;-77
2022/05/25 04:24:53;;;;;;;2.60;1.20;;;;;;;11.75;82.39;100177.13;5054546;28;20201;-77
2022/05/25 04:27:20;;;;;;;1.37;1.10;;;;;;;11.82;81.86;100183.91;5053529;28;20580;-75
2022/05/25 04:29:46;;;;;;;2.23;1.13;;;;;;;11.84;81.60;100193.41;5054432;28;20215;-77
2022/05/25 04:32:14;;;;;;;1.33;1.13;;;;;;;11.91;81.56;100192.38;5054201;28;20263;-76
2022/05/25 04:34:40;;;;;;;6.27;1.47;;;;;;;11.94;82.29;100177.50;5054066;28;20237;-75
2022/05/25 04:39:51;;;;;;;1.03;1.03;;;;;;;12.00;83.07;100141.53;5046396;28;20223;-76
2022/05/25 04:42:18;;;;;;;3.57;1.50;;;;;;;11.97;82.91;100149.50;5053989;28;20760;-76
2022/05/25 04:44:45;;;;;;;2.13;1.30;;;;;;;12.04;83.26;100153.63;5053997;28;20732;-76
2022/05/25 04:47:12;;;;;;;3.10;2.07;;;;;;;12.06;81.74;100178.00;5054131;28;20208;-77
2022/05/25 04:49:43;;;;;;;1.53;1.43;;;;;;;12.09;82.11;100188.38;5053694;28;20209;-77
2022/05/25 04:52:09;;;;;;;1.97;1.50;;;;;;;12.18;83.72;100163.69;5053953;28;20738;-77
2022/05/25 04:54:36;;;;;;;3.33;2.27;;;;;;;12.20;82.28;100180.19;5053306;28;20605;-77
2022/05/25 04:57:20;;;;;;;3.57;2.10;;;;;;;12.26;82.20;100180.00;5053897;28;20295;-77
2022/05/25 04:59:47;;;;;;;3.77;3.23;;;;;;;12.32;81.06;100218.22;5053143;28;20205;-77
2022/05/25 05:02:14;;;;;;;3.37;3.10;;;;;;;12.32;81.14;100231.31;5053865;28;20290;-77
2022/05/25 05:04:42;;;;;;;3.33;3.03;;;;;;;12.39;80.25;100248.56;5053240;28;20602;-76
2022/05/25 05:07:09;;;;;;;3.57;3.37;;;;;;;12.50;79.53;100274.41;5053488;28;20201;-76
2022/05/25 05:09:36;;;;;;;4.87;4.07;;;;;;;12.52;80.14;100275.22;5053521;28;20197;-76
2022/05/25 05:12:04;;;;;;;4.43;4.03;;;;;;;12.61;80.79;100256.63;5053772;28;20267;-77
2022/05/25 05:14:30;;;;;;;3.33;3.03;;;;;;;12.67;80.91;100253.81;5053009;28;20233;-77
2022/05/25 05:16:57;;;;;;;4.53;3.97;;;;;;;12.74;79.74;100280.69;5053645;28;20216;-77
2022/05/25 05:19:24;;;;;;;3.93;3.63;;;;;;;12.61;78.99;100303.78;5053091;28;20303;-77
2022/05/25 05:21:54;;;;;;;4.50;3.20;;;;;;;12.66;80.89;100270.44;5053255;28;20206;-77
2022/05/25 05:24:20;;;;;;;4.30;3.70;;;;;;;12.85;79.63;100285.59;5053265;28;20237;-77
2022/05/25 05:26:47;;;;;;;4.80;3.40;;;;;;;12.88;79.86;100294.22;5053216;28;20679;-76
2022/05/25 05:29:13;;;;;;;3.93;3.60;;;;;;;12.94;79.77;100301.03;5052706;28;20765;-76
2022/05/25 05:31:40;;;;;;;4.87;3.43;;;;;;;12.93;78.88;100330.75;5053109;28;20218;-77
2022/05/25 05:34:06;;;;;;;4.03;3.73;;;;;;;12.95;78.77;100338.59;5052799;28;20236;-76
2022/05/25 05:36:37;;;;;;;4.10;3.70;;;;;;;12.99;78.22;100351.53;5053056;28;20210;-77
2022/05/25 05:39:07;;;;;;;3.63;3.33;;;;;;;12.84;77.30;100378.19;5052694;28;20208;-77
2022/05/25 05:41:38;;;;;;;3.77;3.53;;;;;;;12.84;77.67;100376.44;5053060;28;20243;-77
2022/05/25 05:44:08;;;;;;;3.40;3.10;;;;;;;12.97;77.43;100376.91;5052793;28;20783;-77
2022/05/25 05:46:38;;;;;;;3.70;3.40;;;;;;;13.08;78.28;100371.34;5052949;28;20210;-77
2022/05/25 05:49:05;;;;;;;4.03;3.73;;;;;;;13.12;77.68;100386.06;5052303;28;20695;-77
2022/05/25 05:51:32;;;;;;;4.00;3.70;;;;;;;13.17;77.16;100391.19;5053036;28;20205;-77
2022/05/25 05:53:59;;;;;;;5.20;3.80;;;;;;;13.20;76.74;100398.94;5052028;28;20279;-77
2022/05/25 05:56:27;;;;;;;4.67;4.33;;;;;;;13.29;77.63;100396.06;5052944;28;20210;-76
2022/05/25 05:58:54;;;;;;;4.97;4.50;;;;;;;13.17;76.48;100417.41;5052236;28;20210;-77
2022/05/25 06:01:21;;;;;;;4.33;4.00;;;;;;;13.27;76.70;100410.97;5052870;28;20209;-77
2022/05/25 06:03:47;;;;;;;4.70;4.30;;;;;;;13.26;76.90;100411.84;5047897;28;20229;-77
2022/05/25 06:06:13;;;;;;;4.47;4.17;;;;;;;13.32;76.62;100409.13;5046544;28;20614;-77
2022/05/25 06:08:40;;;;;;;5.00;4.60;;;;;;;13.36;76.63;100412.47;5046768;28;20685;-77
2022/05/25 06:11:07;;;;;;;5.57;4.67;;;;;;;13.35;76.04;100439.63;5042656;28;20713;-77
2022/05/25 06:13:35;;;;;;;5.13;4.47;;;;;;;13.39;77.09;100415.00;5041878;28;20226;-76
2022/05/25 06:21:29;;;;;;;6.10;5.10;;;;;;;13.31;76.70;100423.09;5043679;28;20901;-74
2022/05/25 06:23:57;;;;;;;5.90;5.40;;;;;;;13.25;76.43;100434.59;5041811;28;20227;-74
2022/05/25 06:26:27;;;;;;;5.67;5.27;;;;;;;13.25;75.97;100454.72;5042752;28;20331;-74
2022/05/25 06:28:55;;;;;;;5.23;4.83;;;;;;;13.36;75.41;100476.28;5041221;28;20205;-74
2022/05/25 06:31:21;;;;;;;5.60;5.20;;;;;;;13.24;76.09;100463.47;5040782;28;20528;-75
2022/05/25 06:33:47;;;;;;;6.47;5.87;;;;;;;13.36;76.04;100462.28;5041681;28;20226;-74
2022/05/25 06:36:16;;;;;;;5.70;5.30;;;;;;;13.57;76.32;100450.28;5043539;28;20221;-75
2022/05/25 06:38:42;;;;;;;5.97;5.47;;;;;;;13.68;75.75;100454.28;5047328;28;20287;-75
2022/05/25 06:41:08;;;;;;;6.33;5.83;;;;;;;13.80;76.21;100458.31;5042525;28;20888;-75
2022/05/25 06:43:35;;;;;;;7.47;6.77;;;;;;;13.67;75.34;100485.81;5041059;28;20301;-75
2022/05/25 06:46:03;;;;;;;6.93;6.33;;;;;;;13.63;75.49;100492.91;5041041;28;20206;-75
2022/05/25 06:48:30;;;;;;;7.57;6.97;;;;;;;13.57;74.50;100500.97;5037247;28;20203;-75
2022/05/25 06:50:57;;;;;;;7.40;6.67;;;;;;;13.64;75.21;100509.53;5031141;28;20213;-74
2022/05/25 06:53:23;;;;;;;6.83;6.33;;;;;;;13.67;75.68;100473.56;5032172;28;20234;-77
2022/05/25 06:55:49;;;;;;;6.33;5.83;;;;;;;13.73;74.85;100504.00;5031811;28;20233;-77
2022/05/25 06:58:16;;;;;;;7.37;6.60;;;;;;;13.73;75.16;100501.38;5031703;28;20595;-77
2022/05/25 07:00:42;;;;;;;7.00;6.50;;;;;;;13.74;75.33;100504.88;5031642;28;20203;-76
2022/05/25 07:03:11;;;;;;;6.97;6.37;;;;;;;13.77;75.18;100502.13;5032074;28;20637;-77
2022/05/25 07:05:38;;;;;;;6.40;5.90;;;;;;;13.76;75.72;100500.44;5031548;28;20684;-77
2022/05/25 07:08:05;;;;;;;7.40;6.63;;;;;;;13.59;76.57;100478.19;5052649;28;20264;-76
2022/05/25 07:10:32;;;;;;;7.23;6.70;;;;;;;13.59;76.55;100474.72;5054767;28;20214;-78
2022/05/25 07:12:58;;;;;;;6.70;6.20;;;;;;;13.66;76.79;100471.00;5055626;28;20712;-78
2022/05/25 07:15:25;;;;;;;11.93;8.80;;;;;;;13.68;76.12;100477.91;5054143;28;20229;-77
2022/05/25 07:17:51;;;;;;;8.23;7.53;;;;;;;13.81;74.61;100507.22;5053707;28;20228;-77
2022/05/25 07:20:19;;;;;;;21.37;8.10;;;;;;;13.87;73.21;100556.91;5053399;28;20205;-77
2022/05/25 07:22:45;;;;;;;7.73;6.90;;;;;;;13.76;74.66;100558.16;5051762;28;20633;-77
2022/05/25 07:25:13;;;;;;;8.20;7.50;;;;;;;13.70;74.32;100561.81;5052226;28;20217;-77
2022/05/25 07:27:39;;;;;;;8.53;7.73;;;;;;;13.92;75.54;100525.28;5052163;28;20204;-77
2022/05/25 07:30:07;;;;;;;7.87;7.27;;;;;;;13.89;74.25;100548.97;5051305;28;20205;-77
2022/05/25 07:32:34;;;;;;;7.27;6.67;;;;;;;14.07;74.53;100545.78;5051427;28;20268;-77
2022/05/25 07:35:04;;;;;;;7.37;6.67;;;;;;;14.21;73.32;100576.84;5051551;28;20225;-76
2022/05/25 07:37:37;;;;;;;7.07;6.50;;;;;;;14.26;73.33;100611.69;5051099;28;20737;-77
2022/05/25 07:40:09;;;;;;;6.27;5.67;;;;;;;14.37;72.54;100614.00;5051326;28;20290;-78
2022/05/25 07:42:36;;;;;;;5.13;4.73;;;;;;;14.33;69.87;100674.50;5051191;28;20217;-77
2022/05/25 07:45:04;;;;;;;4.93;4.60;;;;;;;14.42;70.80;100693.47;5051248;28;20216;-78
2022/05/25 07:47:33;;;;;;;5.80;5.30;;;;;;;14.47;68.99;100709.97;5052243;28;20209;-77
2022/05/25 07:50:00;;;;;;;5.73;5.30;;;;;;;14.50;68.99;100730.03;5050751;28;20206;-78
2022/05/25 07:52:28;;;;;;;4.70;4.30;;;;;;;14.57;68.49;100747.34;5051546;28;20203;-78
2022/05/25 07:54:57;;;;;;;4.33;3.93;;;;;;;14.65;67.96;100762.88;5051539;28;20238;-77
2022/05/25 07:57:25;;;;;;;5.00;4.33;;;;;;;14.83;69.03;100745.69;5044414;28;20200;-77
2022/05/25 07:59:51;;;;;;;4.83;4.27;;;;;;;14.88;68.82;100751.66;5041652;28;20206;-77
2022/05/25 08:07:52;;;;;;;4.40;4.10;;;;;;;14.97;65.45;100860.91;5054467;28;20241;-78
2022/05/25 08:10:22;;;;;;;4.47;4.07;;;;;;;15.02;65.00;100880.88;5054667;28;20205;-77
2022/05/25 08:12:51;;;;;;;4.00;3.60;;;;;;;14.99;64.25;100875.72;5054459;28;20325;-78
2022/05/25 08:15:18;;;;;;;4.03;3.80;;;;;;;15.06;64.66;100860.63;5055044;28;20605;-79
2022/05/25 08:17:44;;;;;;;6.30;3.80;;;;;;;15.15;63.95;100894.53;5055201;28;20209;-78
2022/05/25 08:20:12;;;;;;;2.90;2.60;;;;;;;15.10;62.69;100909.56;5054744;28;20263;-77
2022/05/25 08:22:39;;;;;;;3.13;2.93;;;;;;;15.14;63.43;100911.19;5054810;28;20670;-79
2022/05/25 08:25:07;;;;;;;3.20;2.67;;;;;;;15.29;63.29;100909.88;5055744;28;20205;-78
2022/05/25 08:27:38;;;;;;;4.80;2.53;;;;;;;15.41;62.19;100948.09;5056334;28;20644;-78
2022/05/25 08:30:06;;;;;;;3.00;2.80;;;;;;;15.52;61.85;100961.78;5055771;28;20544;-77
2022/05/25 08:32:33;;;;;;;2.43;2.23;;;;;;;15.48;59.29;101032.06;5054687;28;20212;-77
2022/05/25 08:34:59;;;;;;;2.33;2.20;;;;;;;15.66;60.96;101021.91;5053948;28;20252;-78
2022/05/25 08:37:25;;;;;;;2.60;2.40;;;;;;;15.75;58.64;101003.19;5054828;28;20264;-77
2022/05/25 08:39:52;;;;;;;3.00;2.80;;;;;;;15.67;58.86;101040.25;5053825;28;20202;-75
2022/05/25 08:42:20;;;;;;;2.43;2.23;;;;;;;15.70;58.89;101055.09;5053972;28;20263;-74
2022/05/25 08:44:50;;;;;;;2.90;2.50;;;;;;;15.61;59.51;101029.91;5048414;28;20773;-75
2022/05/25 08:47:17;;;;;;;1.90;1.80;;;;;;;15.71;58.22;101043.66;5044894;28;20194;-76
2022/05/25 08:49:47;;;;;;;2.40;1.90;;;;;;;15.64;57.94;101081.63;5043270;28;20200;-76
2022/05/25 08:52:24;;;;;;;3.10;2.27;;;;;;;15.62;57.48;101072.91;5051384;28;20252;-76
2022/05/25 08:54:52;;;;;;;2.43;2.03;;;;;;;15.65;58.65;101062.25;5052544;28;20574;-76
2022/05/25 08:57:23;;;;;;;3.00;2.17;;;;;;;15.93;60.56;101022.81;5034098;28;20214;-76
2022/05/25 08:59:54;;;;;;;2.57;2.03;;;;;;;16.09;58.47;101002.13;5033919;28;20253;-76
2022/05/25 09:02:28;;;;;;;2.13;1.90;;;;;;;16.36;59.37;101023.19;5034506;28;20202;-75
2022/05/25 09:05:00;;;;;;;2.53;1.83;;;;;;;16.56;58.51;101019.88;5034029;28;20187;-76
2022/05/25 09:07:34;;;;;;;3.10;1.70;;;;;;;16.60;56.44;101075.06;5047502;28;20207;-76
2022/05/25 09:10:01;;;;;;;2.40;2.20;;;;;;;16.62;57.85;101101.38;5053268;28;20564;-76
2022/05/25 09:12:33;;;;;;;2.43;2.00;;;;;;;16.62;57.91;101054.78;5052796;28;20202;-76
2022/05/25 09:15:05;;;;;;;3.23;2.13;;;;;;;16.62;58.81;101064.47;5053596;28;20239;-76
2022/05/25 09:17:36;;;;;;;2.00;1.80;;;;;;;16.65;56.64;101032.75;5053717;28;20246;-76
2022/05/25 09:20:02;;;;;;;2.10;1.70;;;;;;;16.57;54.98;101146.34;5053055;28;20199;-76
2022/05/25 09:22:31;;;;;;;3.67;2.90;;;;;;;16.39;56.33;101157.47;5053073;28;20210;-76
2022/05/25 09:25:00;;;;;;;2.97;2.67;;;;;;;16.41;57.83;101137.19;5052918;28;20753;-75
2022/05/25 09:27:30;;;;;;;2.67;2.47;;;;;;;16.35;57.19;101075.03;5053204;28;20215;-75
2022/05/25 09:30:02;;;;;;;2.40;2.20;;;;;;;16.57;58.23;101074.31;5053030;28;20207;-75
2022/05/25 09:32:37;;;;;;;2.27;2.17;;;;;;;16.68;58.25;101056.34;5052786;28;20212;-76
2022/05/25 09:35:09;;;;;;;2.40;1.83;;;;;;;16.73;55.73;101070.25;5052965;28;20260;-77
2022/05/25 09:37:41;;;;;;;1.80;1.70;;;;;;;16.82;55.82;101120.03;5053204;28;20289;-78
2022/05/25 09:40:11;;;;;;;2.60;2.00;;;;;;;16.86;54.82;101123.44;5052896;28;20203;-75
2022/05/25 09:42:38;;;;;;;2.27;1.40;;;;;;;16.95;52.77;101167.13;5052795;28;20260;-76
2022/05/25 09:45:14;;;;;;;1.60;1.50;;;;;;;16.70;51.99;101238.22;5052082;28;20211;-77
2022/05/25 09:47:42;;;;;;;1.63;1.53;;;;;;;16.79;53.42;101235.28;5041372;28;20200;-75
2022/05/25 09:50:17;;;;;;;2.27;1.67;;;;;;;17.03;54.61;101199.38;5042444;28;20248;-75
2022/05/25 09:52:49;;;;;;;2.70;1.73;;;;;;;17.19;50.68;101232.22;5043296;28;20195;-75
2022/05/25 09:55:21;;;;;;;2.03;1.80;;;;;;;17.28;51.71;101275.91;5048135;28;20577;-75
2022/05/25 09:57:56;;;;;;;1.87;1.77;;;;;;;16.96;52.05;101276.97;5052845;28;20300;-75
2022/05/25 10:00:41;;;;;;;2.83;2.17;;;;;;;17.00;53.62;101220.56;5052190;28;20598;-75
2022/05/25 10:03:11;;;;;;;2.00;1.90;;;;;;;16.92;53.38;101214.69;5052159;28;20223;-78
2022/05/25 10:05:53;;;;;;;2.27;2.17;;;;;;;16.78;52.83;101215.09;5052064;28;20207;-76
2022/05/25 10:08:27;;;;;;;1.93;1.83;;;;;;;16.84;52.54;101236.88;5049134;28;20244;-75
2022/05/25 10:10:56;;;;;;;1.90;1.80;;;;;;;16.93;52.03;101243.66;5052342;28;20245;-76
2022/05/25 10:13:26;;;;;;;2.20;2.10;;;;;;;17.13;52.15;101239.50;5052569;28;20227;-76
2022/05/25 10:15:53;;;;;;;1.77;1.67;;;;;;;17.36;50.87;101176.25;5052244;28;20253;-76
2022/05/25 10:18:35;;;;;;;2.00;1.90;;;;;;;17.47;48.93;101266.44;5052165;28;20270;-76
2022/05/25 10:21:03;;;;;;;4.87;1.50;;;;;;;17.60;49.50;101317.06;5051749;28;20205;-75
2022/05/25 10:23:30;;;;;;;2.57;2.20;;;;;;;17.55;49.45;101326.06;5052047;28;20233;-75
2022/05/25 10:25:59;;;;;;;1.53;1.50;;;;;;;17.55;47.83;101328.69;5042648;28;20209;-75
2022/05/25 10:28:29;;;;;;;1.80;1.50;;;;;;;17.65;48.36;101325.69;5041298;28;20200;-74
2022/05/25 10:36:48;;;;;;;1.40;1.30;;;;;;;17.82;46.69;101364.72;5042735;28;20262;-76
2022/05/25 10:39:22;;;;;;;1.40;1.30;;;;;;;17.93;47.93;101377.59;5051064;28;20571;-76
2022/05/25 10:42:01;;;;;;;1.10;1.10;;;;;;;17.84;46.66;101362.06;5049078;28;20704;-76
2022/05/25 10:44:35;;;;;;;1.53;1.43;;;;;;;17.92;47.10;101394.38;5042389;28;20620;-77
2022/05/25 10:47:03;;;;;;;1.60;1.03;;;;;;;17.86;46.89;101408.63;5042658;28;20204;-75
2022/05/25 10:49:37;;;;;;;1.20;1.10;;;;;;;18.13;48.03;101378.66;5041046;28;20194;-76
2022/05/25 10:52:08;;;;;;;2.43;1.10;;;;;;;18.22;46.56;101379.22;5042529;28;20188;-78
2022/05/25 10:54:50;;;;;;;1.73;1.63;;;;;;;17.84;47.51;101367.34;5042463;28;20309;-75
2022/05/25 10:57:47;;;;;;;1.40;1.40;;;;;;;17.76;46.11;101330.59;5042579;28;20716;-74
2022/05/25 11:00:18;;;;;;;1.53;1.10;;;;;;;17.93;47.34;101404.00;5036719;28;20246;-75
2022/05/25 11:03:08;;;;;;;1.43;1.13;;;;;;;18.10;47.36;101374.38;5042248;28;20604;-76
2022/05/25 11:05:42;;;;;;;1.07;0.97;;;;;;;18.08;46.02;101370.91;5041781;28;20199;-78
2022/05/25 11:08:21;;;;;;;1.20;1.00;;;;;;;17.84;47.02;101388.47;5049827;28;20208;-76
2022/05/25 11:10:51;;;;;;;1.00;0.90;;;;;;;17.95;46.28;101388.97;5043826;28;20231;-76
2022/05/25 11:13:51;;;;;;;0.73;0.73;;;;;;;18.34;45.17;101354.13;5042682;28;20229;-75
2022/05/25 11:16:29;;;;;;;1.27;0.80;;;;;;;18.33;45.68;101389.38;5042369;28;20236;-77
2022/05/25 11:19:32;;;;;;;1.03;1.03;;;;;;;18.30;46.23;101371.00;5041999;28;20247;-75
2022/05/25 11:22:14;;;;;;;1.47;0.83;;;;;;;18.42;46.18;101393.50;5025094;28;20204;-75
2022/05/25 11:25:02;;;;;;;0.87;0.80;;;;;;;18.63;44.90;101376.84;5042552;28;20292;-76
2022/05/25 11:27:54;;;;;;;1.67;0.70;;;;;;;18.99;42.98;101323.44;5042190;28;20192;-76
2022/05/25 11:30:29;;;;;;;0.70;0.70;;;;;;;19.37;42.09;101413.69;5040103;28;20194;-77
2022/05/25 11:33:20;;;;;;;0.87;0.50;;;;;;;20.58;41.07;101414.78;5041522;28;20342;-80
2022/05/25 11:36:01;;;;;;;1.33;0.63;;;;;;;21.26;39.67;101534.69;5051786;28;20209;-78
2022/05/25 11:38:42;;;;;;;1.27;0.60;;;;;;;21.22;39.74;101570.28;5055476;28;20196;-77
2022/05/25 11:41:23;;;;;;;3.40;0.70;;;;;;;20.62;39.77;101534.00;5054895;28;20284;-76
2022/05/25 11:44:16;;;;;;;0.63;0.60;;;;;;;20.51;41.12;101538.00;5055337;28;20232;-78
2022/05/25 11:46:45;;;;;;;0.83;0.50;;;;;;;20.19;39.16;101543.75;5054851;28;20622;-77
2022/05/25 11:49:37;;;;;;;0.50;0.50;;;;;;;20.16;40.13;101567.75;5054280;28;20259;-78
2022/05/25 11:52:19;;;;;;;0.70;0.50;;;;;;;19.77;39.80;101536.63;5054699;28;20213;-79
2022/05/25 11:55:00;;;;;;;0.73;0.40;;;;;;;20.12;40.77;101536.97;5055160;28;20339;-78
2022/05/25 11:57:35;;;;;;;2.20;0.70;;;;;;;20.63;39.44;101522.47;5055137;28;20237;-78
2022/05/25 12:00:09;;;;;;;0.50;0.50;;;;;;;21.47;37.68;101516.09;5054706;28;20201;-78
2022/05/25 12:02:58;;;;;;;3.60;1.33;;;;;;;21.21;39.29;101552.66;5054940;28;20202;-76
2022/05/25 12:05:32;;;;;;;1.00;0.60;;;;;;;21.98;38.49;101546.38;5054630;28;20209;-78